createdAt,value
2023-06-27T00:00:49.736Z,0.00
2023-06-27T00:01:49.804Z,0.00
2023-06-27T00:02:49.832Z,0.00
2023-06-27T00:03:49.728Z,0.00
2023-06-27T00:04:49.714Z,0.00
2023-06-27T00:05:49.693Z,0.00
2023-06-27T00:06:49.820Z,0.00
2023-06-27T00:07:49.660Z,0.00
2023-06-27T00:08:49.648Z,0.00
2023-06-27T00:09:49.671Z,0.00
2023-06-27T00:10:49.629Z,0.00
2023-06-27T00:11:49.612Z,0.00
2023-06-27T00:12:49.630Z,0.00
2023-06-27T00:13:49.592Z,0.00
2023-06-27T00:14:49.582Z,0.00
2023-06-27T00:15:49.566Z,0.00
2023-06-27T00:16:49.559Z,0.00
2023-06-27T00:17:49.611Z,0.00
2023-06-27T00:18:50.012Z,0.00
2023-06-27T00:19:49.525Z,0.00
2023-06-27T00:20:49.512Z,0.00
2023-06-27T00:21:49.565Z,0.00
2023-06-27T00:22:49.497Z,0.00
2023-06-27T00:23:49.480Z,0.00
2023-06-27T00:24:49.514Z,0.00
2023-06-27T00:25:49.509Z,0.00
2023-06-27T00:26:49.490Z,0.00
2023-06-27T00:27:49.465Z,0.00
2023-06-27T00:28:49.522Z,0.00
2023-06-27T00:29:49.473Z,0.00
2023-06-27T00:30:49.506Z,0.00
2023-06-27T00:31:49.414Z,0.00
2023-06-27T00:32:49.475Z,0.00
2023-06-27T00:33:49.377Z,0.00
2023-06-27T00:34:49.409Z,0.00
2023-06-27T00:35:49.349Z,0.00
2023-06-27T00:36:49.338Z,0.00
2023-06-27T00:37:49.347Z,0.00
2023-06-27T00:38:49.316Z,0.00
2023-06-27T00:39:49.302Z,0.00
2023-06-27T00:40:49.291Z,0.00
2023-06-27T00:41:49.276Z,0.00
2023-06-27T00:42:49.275Z,0.00
2023-06-27T00:43:49.259Z,0.00
2023-06-27T00:44:49.353Z,0.00
2023-06-27T00:45:49.239Z,0.00
2023-06-27T00:46:49.225Z,0.00
2023-06-27T00:47:49.257Z,0.00
2023-06-27T00:48:49.204Z,0.00
2023-06-27T00:49:49.192Z,0.00
2023-06-27T00:50:49.181Z,0.00
2023-06-27T00:51:49.177Z,0.00
2023-06-27T00:52:49.158Z,0.00
2023-06-27T00:53:49.150Z,0.00
2023-06-27T00:54:49.137Z,0.00
2023-06-27T00:55:49.126Z,0.00
2023-06-27T00:56:49.114Z,0.00
2023-06-27T00:57:49.102Z,0.00
2023-06-27T00:58:49.088Z,0.00
2023-06-27T00:59:49.081Z,0.00
2023-06-27T01:00:49.106Z,0.00
2023-06-27T01:01:49.067Z,0.00
2023-06-27T01:02:49.126Z,0.00
2023-06-27T01:03:49.097Z,0.00
2023-06-27T01:04:49.034Z,0.00
2023-06-27T01:05:49.012Z,0.00
2023-06-27T01:06:49.030Z,0.00
2023-06-27T01:07:49.022Z,0.00
2023-06-27T01:08:48.997Z,0.00
2023-06-27T01:09:48.973Z,0.00
2023-06-27T01:10:48.970Z,0.00
2023-06-27T01:11:48.959Z,0.00
2023-06-27T01:12:48.940Z,0.00
2023-06-27T01:13:48.929Z,0.00
2023-06-27T01:14:48.918Z,0.00
2023-06-27T01:15:48.909Z,0.00
2023-06-27T01:16:48.922Z,0.00
2023-06-27T01:17:48.916Z,0.00
2023-06-27T01:18:48.884Z,0.00
2023-06-27T01:19:48.862Z,0.00
2023-06-27T01:20:48.865Z,0.00
2023-06-27T01:21:48.844Z,0.00
2023-06-27T01:22:48.852Z,0.00
2023-06-27T01:23:48.818Z,0.00
2023-06-27T01:24:48.814Z,0.00
2023-06-27T01:25:48.799Z,0.00
2023-06-27T01:26:48.794Z,0.00
2023-06-27T01:27:48.781Z,0.00
2023-06-27T01:28:48.761Z,0.00
2023-06-27T01:29:48.756Z,0.00
2023-06-27T01:30:48.742Z,0.00
2023-06-27T01:31:48.772Z,0.00
2023-06-27T01:32:48.770Z,0.00
2023-06-27T01:33:48.708Z,0.00
2023-06-27T01:34:48.698Z,0.00
2023-06-27T01:35:48.732Z,0.00
2023-06-27T01:36:48.675Z,0.00
2023-06-27T01:37:48.670Z,0.00
2023-06-27T01:38:48.659Z,0.00
2023-06-27T01:39:48.647Z,0.00
2023-06-27T01:40:48.661Z,0.00
2023-06-27T01:41:48.685Z,0.00
2023-06-27T01:42:48.618Z,0.00
2023-06-27T01:43:48.602Z,0.00
2023-06-27T01:44:48.615Z,0.00
2023-06-27T01:45:48.592Z,0.00
2023-06-27T01:46:48.571Z,0.00
2023-06-27T01:47:48.666Z,0.00
2023-06-27T01:48:48.574Z,0.00
2023-06-27T01:49:48.545Z,0.00
2023-06-27T01:50:48.523Z,0.00
2023-06-27T01:51:48.514Z,0.00
2023-06-27T01:52:48.503Z,0.00
2023-06-27T01:53:48.500Z,0.00
2023-06-27T01:54:48.497Z,0.00
2023-06-27T01:55:48.486Z,0.00
2023-06-27T01:56:48.456Z,0.00
2023-06-27T01:57:48.453Z,0.00
2023-06-27T01:58:48.434Z,0.00
2023-06-27T01:59:48.440Z,0.00
2023-06-27T02:00:48.432Z,0.00
2023-06-27T02:01:48.400Z,0.00
2023-06-27T02:02:48.500Z,0.00
2023-06-27T02:03:48.401Z,0.00
2023-06-27T02:04:48.391Z,0.00
2023-06-27T02:05:48.357Z,0.00
2023-06-27T02:06:48.370Z,0.00
2023-06-27T02:07:48.334Z,0.00
2023-06-27T02:08:48.330Z,0.00
2023-06-27T02:09:48.319Z,4.00
2023-06-27T02:10:48.305Z,4.00
2023-06-27T02:11:48.290Z,4.00
2023-06-27T02:12:48.290Z,4.00
2023-06-27T02:13:48.266Z,0.00
2023-06-27T02:14:48.262Z,4.00
2023-06-27T02:15:48.246Z,4.00
2023-06-27T02:16:48.233Z,4.00
2023-06-27T02:17:48.261Z,8.00
2023-06-27T02:18:48.233Z,4.00
2023-06-27T02:19:48.208Z,4.00
2023-06-27T02:20:48.218Z,8.00
2023-06-27T02:21:48.185Z,4.00
2023-06-27T02:22:48.167Z,8.00
2023-06-27T02:23:48.151Z,12.00
2023-06-27T02:24:48.146Z,12.00
2023-06-27T02:25:48.131Z,12.00
2023-06-27T02:26:48.126Z,16.00
2023-06-27T02:27:48.125Z,16.00
2023-06-27T02:28:48.103Z,16.00
2023-06-27T02:29:48.089Z,20.00
2023-06-27T02:30:48.107Z,20.00
2023-06-27T02:31:48.077Z,24.00
2023-06-27T02:32:48.110Z,28.00
2023-06-27T02:33:48.054Z,28.00
2023-06-27T02:34:48.035Z,32.00
2023-06-27T02:35:48.025Z,36.00
2023-06-27T02:36:48.039Z,44.00
2023-06-27T02:37:48.001Z,44.00
2023-06-27T02:38:47.989Z,52.00
2023-06-27T02:39:47.978Z,56.00
2023-06-27T02:40:47.970Z,64.00
2023-06-27T02:41:47.954Z,68.00
2023-06-27T02:42:47.947Z,76.00
2023-06-27T02:43:47.937Z,84.00
2023-06-27T02:44:47.922Z,96.00
2023-06-27T02:45:47.912Z,104.00
2023-06-27T02:46:47.954Z,112.00
2023-06-27T02:47:47.918Z,124.00
2023-06-27T02:48:47.879Z,132.00
2023-06-27T02:49:47.869Z,144.00
2023-06-27T02:50:47.853Z,156.00
2023-06-27T02:51:47.840Z,168.00
2023-06-27T02:52:47.872Z,180.00
2023-06-27T02:53:47.816Z,196.00
2023-06-27T02:54:47.814Z,212.00
2023-06-27T02:55:47.796Z,228.00
2023-06-27T02:56:47.784Z,248.00
2023-06-27T02:57:47.770Z,264.00
2023-06-27T02:58:47.765Z,280.00
2023-06-27T02:59:47.752Z,300.00
2023-06-27T03:00:47.743Z,320.00
2023-06-27T03:01:47.746Z,340.00
2023-06-27T03:02:47.791Z,360.00
2023-06-27T03:03:47.798Z,384.00
2023-06-27T03:04:47.698Z,408.00
2023-06-27T03:05:47.684Z,428.00
2023-06-27T03:06:47.699Z,452.00
2023-06-27T03:07:47.688Z,480.00
2023-06-27T03:08:47.685Z,504.00
2023-06-27T03:09:47.640Z,532.00
2023-06-27T03:10:47.629Z,560.00
2023-06-27T03:11:47.716Z,588.00
2023-06-27T03:12:47.631Z,612.00
2023-06-27T03:13:47.592Z,648.00
2023-06-27T03:14:47.595Z,676.00
2023-06-27T03:15:47.569Z,708.00
2023-06-27T03:16:47.566Z,740.00
2023-06-27T03:17:47.592Z,768.00
2023-06-27T03:18:47.555Z,808.00
2023-06-27T03:19:47.528Z,840.00
2023-06-27T03:20:47.519Z,876.00
2023-06-27T03:21:47.505Z,912.00
2023-06-27T03:22:47.492Z,952.00
2023-06-27T03:23:47.493Z,988.00
2023-06-27T03:24:47.506Z,1032.00
2023-06-27T03:25:47.463Z,1080.00
2023-06-27T03:26:47.447Z,1128.00
2023-06-27T03:27:47.438Z,1180.00
2023-06-27T03:28:47.427Z,1244.00
2023-06-27T03:29:47.422Z,1304.00
2023-06-27T03:30:47.422Z,1364.00
2023-06-27T03:31:47.474Z,1432.00
2023-06-27T03:32:47.461Z,1496.00
2023-06-27T03:33:47.373Z,1556.00
2023-06-27T03:34:47.363Z,1600.00
2023-06-27T03:35:47.358Z,1648.00
2023-06-27T03:36:47.346Z,1692.00
2023-06-27T03:37:47.326Z,1732.00
2023-06-27T03:38:47.314Z,1768.00
2023-06-27T03:39:47.305Z,1784.00
2023-06-27T03:40:47.319Z,1808.00
2023-06-27T03:41:47.282Z,1840.00
2023-06-27T03:42:47.273Z,1856.00
2023-06-27T03:43:47.275Z,1856.00
2023-06-27T03:44:47.253Z,1852.00
2023-06-27T03:45:47.260Z,1864.00
2023-06-27T03:46:47.226Z,1884.00
2023-06-27T03:47:47.268Z,1904.00
2023-06-27T03:48:47.201Z,1924.00
2023-06-27T03:49:47.204Z,1944.00
2023-06-27T03:50:47.183Z,1964.00
2023-06-27T03:51:47.178Z,1992.00
2023-06-27T03:52:47.177Z,2028.00
2023-06-27T03:53:47.171Z,2072.00
2023-06-27T03:54:47.134Z,2116.00
2023-06-27T03:55:47.130Z,2156.00
2023-06-27T03:56:47.153Z,2196.00
2023-06-27T03:57:47.106Z,2236.00
2023-06-27T03:58:47.092Z,2280.00
2023-06-27T03:59:47.100Z,2332.00
2023-06-27T04:00:47.073Z,2392.00
2023-06-27T04:01:47.078Z,2464.00
2023-06-27T04:02:47.107Z,2540.00
2023-06-27T04:03:47.122Z,2628.00
2023-06-27T04:04:47.099Z,2724.00
2023-06-27T04:05:47.022Z,2808.00
2023-06-27T04:06:47.067Z,2888.00
2023-06-27T04:07:46.995Z,2964.00
2023-06-27T04:08:47.056Z,3036.00
2023-06-27T04:09:46.973Z,3108.00
2023-06-27T04:10:46.960Z,3148.00
2023-06-27T04:11:46.952Z,3180.00
2023-06-27T04:12:46.967Z,3396.00
2023-06-27T04:13:46.937Z,3336.00
2023-06-27T04:14:46.923Z,3356.00
2023-06-27T04:15:46.923Z,3472.00
2023-06-27T04:16:46.935Z,3860.00
2023-06-27T04:17:47.045Z,3924.00
2023-06-27T04:18:46.873Z,3948.00
2023-06-27T04:19:47.027Z,4296.00
2023-06-27T04:20:46.890Z,4716.00
2023-06-27T04:21:46.845Z,4428.00
2023-06-27T04:22:46.833Z,4100.00
2023-06-27T04:23:46.821Z,3972.00
2023-06-27T04:24:46.826Z,3916.00
2023-06-27T04:25:46.846Z,3756.00
2023-06-27T04:26:46.785Z,3636.00
2023-06-27T04:27:47.257Z,3508.00
2023-06-27T04:28:46.787Z,3452.00
2023-06-27T04:29:46.756Z,3412.00
2023-06-27T04:30:46.737Z,3456.00
2023-06-27T04:31:46.851Z,3512.00
2023-06-27T04:32:48.018Z,3496.00
2023-06-27T04:33:46.717Z,3508.00
2023-06-27T04:34:47.143Z,3620.00
2023-06-27T04:35:46.698Z,3704.00
2023-06-27T04:36:46.689Z,3736.00
2023-06-27T04:37:46.664Z,3816.00
2023-06-27T04:38:46.652Z,3992.00
2023-06-27T04:39:46.672Z,4192.00
2023-06-27T04:40:46.657Z,4160.00
2023-06-27T04:41:46.620Z,4520.00
2023-06-27T04:42:46.621Z,5108.00
2023-06-27T04:43:46.600Z,5756.00
2023-06-27T04:44:46.750Z,5656.00
2023-06-27T04:45:46.853Z,5700.00
2023-06-27T04:46:46.567Z,5932.00
2023-06-27T04:47:46.635Z,5388.00
2023-06-27T04:48:48.039Z,8044.00
2023-06-27T04:49:46.528Z,6500.00
2023-06-27T04:50:46.519Z,8980.00
2023-06-27T04:51:46.541Z,9772.00
2023-06-27T04:52:46.512Z,10016.00
2023-06-27T04:53:46.494Z,10612.00
2023-06-27T04:54:46.476Z,11072.00
2023-06-27T04:55:46.478Z,11492.00
2023-06-27T04:56:46.563Z,11664.00
2023-06-27T04:57:46.689Z,11720.00
2023-06-27T04:58:46.435Z,11980.00
2023-06-27T04:59:46.430Z,11984.00
2023-06-27T05:00:46.445Z,10752.00
2023-06-27T05:01:46.407Z,13636.00
2023-06-27T05:02:50.119Z,14400.00
2023-06-27T05:03:46.389Z,15072.00
2023-06-27T05:04:46.402Z,15520.00
2023-06-27T05:05:46.353Z,16256.00
2023-06-27T05:06:46.445Z,9060.00
2023-06-27T05:07:46.383Z,17440.00
2023-06-27T05:08:46.473Z,15360.00
2023-06-27T05:09:46.693Z,16640.00
2023-06-27T05:10:47.207Z,16576.00
2023-06-27T05:11:46.426Z,16864.00
2023-06-27T05:12:46.332Z,16384.00
2023-06-27T05:13:46.444Z,16192.00
2023-06-27T05:14:46.520Z,13292.00
2023-06-27T05:15:49.318Z,12924.00
2023-06-27T05:16:46.530Z,14116.00
2023-06-27T05:17:46.621Z,15680.00
2023-06-27T05:18:46.211Z,17088.00
2023-06-27T05:19:46.212Z,17472.00
2023-06-27T05:20:46.593Z,17952.00
2023-06-27T05:21:46.321Z,18912.00
2023-06-27T05:22:46.176Z,19264.00
2023-06-27T05:23:46.171Z,20000.00
2023-06-27T05:24:46.145Z,12748.00
2023-06-27T05:25:46.140Z,20320.00
2023-06-27T05:26:46.125Z,22208.00
2023-06-27T05:27:46.109Z,22624.00
2023-06-27T05:28:46.100Z,11780.00
2023-06-27T05:29:46.095Z,9040.00
2023-06-27T05:30:46.153Z,8732.00
2023-06-27T05:31:46.070Z,9176.00
2023-06-27T05:32:46.115Z,15184.00
2023-06-27T05:33:46.179Z,25984.00
2023-06-27T05:34:47.602Z,25792.00
2023-06-27T05:35:46.022Z,25952.00
2023-06-27T05:36:46.060Z,26880.00
2023-06-27T05:37:46.005Z,27328.00
2023-06-27T05:38:45.992Z,16544.00
2023-06-27T05:39:45.978Z,24576.00
2023-06-27T05:40:46.022Z,27936.00
2023-06-27T05:41:45.959Z,24160.00
2023-06-27T05:42:45.948Z,9732.00
2023-06-27T05:43:45.937Z,8332.00
2023-06-27T05:44:46.199Z,7304.00
2023-06-27T05:45:45.934Z,7068.00
2023-06-27T05:46:45.933Z,13952.00
2023-06-27T05:47:46.378Z,29376.00
2023-06-27T05:48:46.180Z,30272.00
2023-06-27T05:49:45.902Z,29408.00
2023-06-27T05:50:46.149Z,28320.00
2023-06-27T05:51:46.153Z,29312.00
2023-06-27T05:52:46.120Z,27776.00
2023-06-27T05:53:46.125Z,30624.00
2023-06-27T05:54:46.118Z,15072.00
2023-06-27T05:55:45.811Z,10096.00
2023-06-27T05:56:45.796Z,10068.00
2023-06-27T05:57:45.789Z,12020.00
2023-06-27T05:58:46.127Z,11596.00
2023-06-27T05:59:45.890Z,12880.00
2023-06-27T06:00:45.846Z,28512.00
2023-06-27T06:01:45.803Z,32832.00
2023-06-27T06:02:45.977Z,29056.00
2023-06-27T06:03:45.739Z,25440.00
2023-06-27T06:04:45.738Z,21152.00
2023-06-27T06:05:45.700Z,23808.00
2023-06-27T06:06:45.722Z,22944.00
2023-06-27T06:07:45.677Z,36576.00
2023-06-27T06:08:45.664Z,38304.00
2023-06-27T06:09:45.671Z,38272.00
2023-06-27T06:10:45.644Z,38112.00
2023-06-27T06:11:45.712Z,37376.00
2023-06-27T06:12:45.650Z,34304.00
2023-06-27T06:13:45.608Z,23168.00
2023-06-27T06:14:45.600Z,27392.00
2023-06-27T06:15:45.591Z,20192.00
2023-06-27T06:16:45.579Z,26304.00
2023-06-27T06:17:45.630Z,25664.00
2023-06-27T06:18:45.557Z,26368.00
2023-06-27T06:19:45.549Z,26624.00
2023-06-27T06:20:45.570Z,40256.00
2023-06-27T06:21:45.574Z,15652.00
2023-06-27T06:22:45.594Z,23264.00
2023-06-27T06:23:45.681Z,37536.00
2023-06-27T06:24:45.794Z,32000.00
2023-06-27T06:25:45.637Z,32416.00
2023-06-27T06:26:45.529Z,26848.00
2023-06-27T06:27:45.606Z,26496.00
2023-06-27T06:28:45.555Z,32832.00
2023-06-27T06:29:45.444Z,22944.00
2023-06-27T06:30:45.424Z,29440.00
2023-06-27T06:31:45.443Z,23392.00
2023-06-27T06:32:45.430Z,18912.00
2023-06-27T06:33:45.394Z,23616.00
2023-06-27T06:34:45.446Z,32896.00
2023-06-27T06:35:45.435Z,33568.00
2023-06-27T06:36:45.395Z,39776.00
2023-06-27T06:37:45.364Z,30176.00
2023-06-27T06:38:45.340Z,28896.00
2023-06-27T06:39:45.350Z,21984.00
2023-06-27T06:40:45.322Z,28928.00
2023-06-27T06:41:45.314Z,28800.00
2023-06-27T06:42:45.296Z,19072.00
2023-06-27T06:43:45.291Z,19552.00
2023-06-27T06:44:45.270Z,46880.00
2023-06-27T06:45:45.311Z,29440.00
2023-06-27T06:46:45.278Z,44864.00
2023-06-27T06:47:45.337Z,44064.00
2023-06-27T06:48:45.237Z,50528.00
2023-06-27T06:49:45.221Z,53600.00
2023-06-27T06:50:45.207Z,53344.00
2023-06-27T06:51:45.204Z,55072.00
2023-06-27T06:52:45.224Z,54784.00
2023-06-27T06:53:45.178Z,54304.00
2023-06-27T06:54:45.166Z,54496.00
2023-06-27T06:55:45.168Z,57024.00
2023-06-27T06:56:45.150Z,55520.00
2023-06-27T06:57:45.149Z,54720.00
2023-06-27T06:58:45.159Z,55456.00
2023-06-27T06:59:45.108Z,58144.00
2023-06-27T07:00:45.111Z,56960.00
2023-06-27T07:01:45.970Z,53184.00
2023-06-27T07:02:45.171Z,53888.00
2023-06-27T07:03:45.068Z,52608.00
2023-06-27T07:04:45.105Z,49024.00
2023-06-27T07:05:45.054Z,52672.00
2023-06-27T07:06:45.174Z,53440.00
2023-06-27T07:07:45.026Z,53472.00
2023-06-27T07:08:45.036Z,53248.00
2023-06-27T07:09:45.026Z,58560.00
2023-06-27T07:10:45.096Z,57024.00
2023-06-27T07:11:44.991Z,57152.00
2023-06-27T07:12:45.054Z,60320.00
2023-06-27T07:13:44.969Z,59296.00
2023-06-27T07:14:44.958Z,56032.00
2023-06-27T07:15:44.954Z,55936.00
2023-06-27T07:16:44.932Z,60288.00
2023-06-27T07:17:45.036Z,60960.00
2023-06-27T07:18:44.939Z,62528.00
2023-06-27T07:19:44.929Z,63552.00
2023-06-27T07:20:44.896Z,69088.00
2023-06-27T07:21:45.334Z,22464.00
2023-06-27T07:22:44.894Z,19872.00
2023-06-27T07:23:44.888Z,74912.00
2023-06-27T07:24:44.909Z,15676.00
2023-06-27T07:25:44.838Z,12524.00
2023-06-27T07:26:44.827Z,14692.00
2023-06-27T07:27:44.814Z,74176.00
2023-06-27T07:28:44.802Z,79488.00
2023-06-27T07:29:44.803Z,78848.00
2023-06-27T07:30:44.859Z,55328.00
2023-06-27T07:31:44.828Z,16236.00
2023-06-27T07:32:44.826Z,73056.00
2023-06-27T07:33:44.792Z,14204.00
2023-06-27T07:34:44.745Z,17472.00
2023-06-27T07:35:44.744Z,75872.00
2023-06-27T07:36:44.721Z,75328.00
2023-06-27T07:37:44.706Z,22912.00
2023-06-27T07:38:44.705Z,80064.00
2023-06-27T07:39:44.694Z,78080.00
2023-06-27T07:40:44.712Z,17472.00
2023-06-27T07:41:44.672Z,18496.00
2023-06-27T07:42:44.672Z,73312.00
2023-06-27T07:43:44.638Z,21344.00
2023-06-27T07:44:44.635Z,21056.00
2023-06-27T07:45:44.629Z,15592.00
2023-06-27T07:47:44.644Z,12420.00
2023-06-27T07:48:44.588Z,13724.00
2023-06-27T07:49:44.575Z,74816.00
2023-06-27T07:50:44.563Z,90080.00
2023-06-27T07:51:44.551Z,88512.00
2023-06-27T07:52:44.539Z,62656.00
2023-06-27T07:53:44.537Z,22880.00
2023-06-27T07:54:44.536Z,76256.00
2023-06-27T07:55:44.514Z,84960.00
2023-06-27T07:56:44.543Z,77792.00
2023-06-27T07:57:44.585Z,78176.00
2023-06-27T07:58:44.482Z,27808.00
2023-06-27T07:59:44.466Z,25696.00
2023-06-27T08:00:44.475Z,78240.00
2023-06-27T08:01:44.491Z,28224.00
2023-06-27T08:02:44.457Z,17568.00
2023-06-27T08:03:44.473Z,18720.00
2023-06-27T08:04:44.414Z,71904.00
2023-06-27T08:05:44.901Z,79520.00
2023-06-27T08:06:44.402Z,80544.00
2023-06-27T08:07:44.386Z,85824.00
2023-06-27T08:08:44.422Z,83776.00
2023-06-27T08:09:44.664Z,67360.00
2023-06-27T08:10:44.446Z,90912.00
2023-06-27T08:11:44.339Z,91584.00
2023-06-27T08:12:44.422Z,86080.00
2023-06-27T08:13:44.332Z,77664.00
2023-06-27T08:14:44.312Z,12424.00
2023-06-27T08:15:44.296Z,11420.00
2023-06-27T08:16:44.328Z,13116.00
2023-06-27T08:17:44.334Z,16248.00
2023-06-27T08:18:44.274Z,84480.00
2023-06-27T08:19:44.379Z,17824.00
2023-06-27T08:20:44.253Z,94784.00
2023-06-27T08:21:44.263Z,98176.00
2023-06-27T08:22:44.240Z,67936.00
2023-06-27T08:23:44.219Z,90528.00
2023-06-27T08:24:44.211Z,91744.00
2023-06-27T08:25:44.201Z,64992.00
2023-06-27T08:26:44.193Z,35904.00
2023-06-27T08:27:44.185Z,61920.00
2023-06-27T08:28:44.301Z,81120.00
2023-06-27T08:29:44.156Z,61056.00
2023-06-27T08:30:44.170Z,23488.00
2023-06-27T08:31:44.150Z,93088.00
2023-06-27T08:32:44.166Z,100864.00
2023-06-27T08:33:44.120Z,63328.00
2023-06-27T08:34:44.103Z,96288.00
2023-06-27T08:35:44.410Z,106560.00
2023-06-27T08:36:46.303Z,101792.00
2023-06-27T08:37:44.098Z,95488.00
2023-06-27T08:38:44.077Z,25408.00
2023-06-27T08:39:44.080Z,20608.00
2023-06-27T08:40:44.059Z,19808.00
2023-06-27T08:41:44.040Z,20416.00
2023-06-27T08:42:44.024Z,21376.00
2023-06-27T08:43:44.013Z,23744.00
2023-06-27T08:44:44.058Z,28992.00
2023-06-27T08:45:44.009Z,28992.00
2023-06-27T08:46:43.983Z,99328.00
2023-06-27T08:47:44.061Z,105696.00
2023-06-27T08:48:43.960Z,96000.00
2023-06-27T08:49:44.719Z,104672.00
2023-06-27T08:50:44.004Z,34592.00
2023-06-27T08:51:43.934Z,54176.00
2023-06-27T08:52:43.946Z,35232.00
2023-06-27T08:53:43.917Z,43424.00
2023-06-27T08:54:43.910Z,32096.00
2023-06-27T08:55:43.898Z,26784.00
2023-06-27T08:56:43.897Z,20384.00
2023-06-27T08:57:43.881Z,16576.00
2023-06-27T08:58:43.874Z,18400.00
2023-06-27T08:59:43.856Z,22176.00
2023-06-27T09:00:43.947Z,25984.00
2023-06-27T09:01:43.989Z,29952.00
2023-06-27T09:02:43.882Z,31392.00
2023-06-27T09:03:43.978Z,37312.00
2023-06-27T09:04:43.824Z,80864.00
2023-06-27T09:05:44.210Z,29024.00
2023-06-27T09:06:43.786Z,24640.00
2023-06-27T09:07:43.776Z,24832.00
2023-06-27T09:08:43.811Z,25696.00
2023-06-27T09:09:43.752Z,26656.00
2023-06-27T09:10:43.755Z,28320.00
2023-06-27T09:11:43.734Z,28000.00
2023-06-27T09:12:43.732Z,29312.00
2023-06-27T09:13:43.753Z,27360.00
2023-06-27T09:14:43.711Z,25280.00
2023-06-27T09:15:44.014Z,24672.00
2023-06-27T09:16:43.797Z,32416.00
2023-06-27T09:17:43.708Z,27296.00
2023-06-27T09:18:43.657Z,113056.00
2023-06-27T09:19:43.650Z,108064.00
2023-06-27T09:20:43.667Z,94432.00
2023-06-27T09:21:43.634Z,101984.00
2023-06-27T09:22:44.302Z,112544.00
2023-06-27T09:23:43.647Z,92384.00
2023-06-27T09:24:43.672Z,87520.00
2023-06-27T09:25:43.689Z,102112.00
2023-06-27T09:26:43.576Z,89024.00
2023-06-27T09:27:43.575Z,93504.00
2023-06-27T09:28:43.553Z,110176.00
2023-06-27T09:29:43.550Z,96352.00
2023-06-27T09:30:43.545Z,101920.00
2023-06-27T09:31:43.530Z,117088.00
2023-06-27T09:32:43.603Z,100384.00
2023-06-27T09:33:45.797Z,101344.00
2023-06-27T09:34:43.499Z,124384.00
2023-06-27T09:36:00.418Z,99328.00
2023-06-27T09:38:46.098Z,18624.00
2023-06-27T09:39:43.552Z,15220.00
2023-06-27T09:40:43.454Z,12392.00
2023-06-27T09:41:43.425Z,13016.00
2023-06-27T09:42:43.421Z,17952.00
2023-06-27T09:43:43.414Z,23488.00
2023-06-27T09:44:43.426Z,28800.00
2023-06-27T09:45:43.607Z,25536.00
2023-06-27T09:46:43.406Z,27168.00
2023-06-27T09:47:45.223Z,48832.00
2023-06-27T09:48:43.467Z,42304.00
2023-06-27T09:49:45.275Z,95072.00
2023-06-27T09:50:43.340Z,92128.00
2023-06-27T09:51:43.322Z,127232.00
2023-06-27T09:52:43.312Z,107104.00
2023-06-27T09:53:43.300Z,98752.00
2023-06-27T09:54:43.293Z,141760.00
2023-06-27T09:55:43.395Z,108032.00
2023-06-27T09:56:43.308Z,89280.00
2023-06-27T09:57:43.323Z,122208.00
2023-06-27T09:58:43.255Z,113824.00
2023-06-27T09:59:43.244Z,98784.00
2023-06-27T10:00:43.239Z,98976.00
2023-06-27T10:01:43.225Z,97408.00
2023-06-27T10:02:43.306Z,103008.00
2023-06-27T10:03:43.246Z,113440.00
2023-06-27T10:04:43.232Z,97792.00
2023-06-27T10:05:51.087Z,98496.00
2023-06-27T10:06:44.237Z,115552.00
2023-06-27T10:07:43.188Z,124064.00
2023-06-27T10:08:43.271Z,122912.00
2023-06-27T10:09:43.164Z,129440.00
2023-06-27T10:10:43.134Z,135808.00
2023-06-27T10:11:43.142Z,44960.00
2023-06-27T10:12:43.144Z,35424.00
2023-06-27T10:13:43.102Z,22272.00
2023-06-27T10:14:43.103Z,17568.00
2023-06-27T10:15:43.335Z,15232.00
2023-06-27T10:16:43.070Z,14456.00
2023-06-27T10:17:43.097Z,15276.00
2023-06-27T10:18:43.160Z,16096.00
2023-06-27T10:19:43.044Z,17920.00
2023-06-27T10:20:43.141Z,22880.00
2023-06-27T10:21:43.025Z,29920.00
2023-06-27T10:22:43.015Z,30048.00
2023-06-27T10:23:43.004Z,32192.00
2023-06-27T10:24:42.992Z,149952.00
2023-06-27T10:25:43.204Z,44320.00
2023-06-27T10:26:43.003Z,89440.00
2023-06-27T10:27:42.991Z,56192.00
2023-06-27T10:28:42.946Z,56128.00
2023-06-27T10:29:43.057Z,56832.00
2023-06-27T10:30:42.962Z,21952.00
2023-06-27T10:31:42.912Z,97088.00
2023-06-27T10:32:42.987Z,31616.00
2023-06-27T10:33:42.896Z,98272.00
2023-06-27T10:34:42.890Z,113664.00
2023-06-27T10:35:42.877Z,109440.00
2023-06-27T10:36:42.943Z,98656.00
2023-06-27T10:37:42.922Z,111392.00
2023-06-27T10:38:42.841Z,109056.00
2023-06-27T10:39:43.043Z,92256.00
2023-06-27T10:40:42.833Z,107104.00
2023-06-27T10:41:42.811Z,135072.00
2023-06-27T10:42:42.805Z,118720.00
2023-06-27T10:43:42.803Z,106848.00
2023-06-27T10:44:42.785Z,121600.00
2023-06-27T10:45:43.026Z,114784.00
2023-06-27T10:46:42.806Z,45184.00
2023-06-27T10:47:42.846Z,108032.00
2023-06-27T10:48:43.790Z,109376.00
2023-06-27T10:49:42.728Z,107840.00
2023-06-27T10:50:43.036Z,112288.00
2023-06-27T10:51:42.800Z,108544.00
2023-06-27T10:52:42.825Z,108512.00
2023-06-27T10:53:42.702Z,116480.00
2023-06-27T10:54:42.691Z,115968.00
2023-06-27T10:55:42.693Z,105728.00
2023-06-27T10:56:42.870Z,118880.00
2023-06-27T10:57:42.667Z,112928.00
2023-06-27T10:59:42.645Z,20640.00
2023-06-27T11:00:43.068Z,120096.00
2023-06-27T11:01:42.642Z,116384.00
2023-06-27T11:02:42.829Z,94112.00
2023-06-27T11:03:42.825Z,35648.00
2023-06-27T11:04:42.844Z,118400.00
2023-06-27T11:05:42.780Z,108256.00
2023-06-27T11:06:42.571Z,115008.00
2023-06-27T11:07:42.559Z,21248.00
2023-06-27T11:08:42.665Z,93440.00
2023-06-27T11:09:42.535Z,109600.00
2023-06-27T11:10:42.700Z,122112.00
2023-06-27T11:11:42.546Z,85984.00
2023-06-27T11:12:42.517Z,36544.00
2023-06-27T11:13:42.579Z,32960.00
2023-06-27T11:14:42.512Z,111232.00
2023-06-27T11:15:42.478Z,29120.00
2023-06-27T11:16:42.586Z,26112.00
2023-06-27T11:17:42.512Z,111936.00
2023-06-27T11:18:42.462Z,79936.00
2023-06-27T11:19:42.488Z,97792.00
2023-06-27T11:20:42.686Z,110336.00
2023-06-27T11:21:42.439Z,109056.00
2023-06-27T11:22:42.509Z,22752.00
2023-06-27T11:23:42.432Z,90368.00
2023-06-27T11:24:42.435Z,96032.00
2023-06-27T11:25:42.380Z,87808.00
2023-06-27T11:26:42.375Z,22816.00
2023-06-27T11:27:42.381Z,54144.00
2023-06-27T11:28:42.355Z,20480.00
2023-06-27T11:29:42.352Z,20352.00
2023-06-27T11:30:42.756Z,22912.00
2023-06-27T11:31:42.363Z,94848.00
2023-06-27T11:32:42.383Z,111872.00
2023-06-27T11:33:42.307Z,120096.00
2023-06-27T11:34:42.372Z,112288.00
2023-06-27T11:35:42.287Z,102208.00
2023-06-27T11:36:42.280Z,96448.00
2023-06-27T11:37:42.267Z,101952.00
2023-06-27T11:38:42.254Z,102912.00
2023-06-27T11:39:42.255Z,27424.00
2023-06-27T11:40:43.822Z,44096.00
2023-06-27T11:41:42.240Z,118048.00
2023-06-27T11:42:42.223Z,89952.00
2023-06-27T11:43:42.209Z,87136.00
2023-06-27T11:44:42.247Z,108160.00
2023-06-27T11:45:42.213Z,118368.00
2023-06-27T11:46:42.185Z,124256.00
2023-06-27T11:47:42.206Z,124000.00
2023-06-27T11:48:42.165Z,19680.00
2023-06-27T11:49:42.152Z,19744.00
2023-06-27T11:50:42.301Z,107264.00
2023-06-27T11:51:42.364Z,109632.00
2023-06-27T11:52:42.140Z,122496.00
2023-06-27T11:53:42.118Z,124064.00
2023-06-27T11:54:42.117Z,107808.00
2023-06-27T11:55:42.304Z,106848.00
2023-06-27T11:56:42.133Z,119520.00
2023-06-27T11:57:42.081Z,119264.00
2023-06-27T11:58:42.107Z,99328.00
2023-06-27T11:59:42.061Z,104448.00
2023-06-27T12:00:42.303Z,115360.00
2023-06-27T12:01:42.177Z,114816.00
2023-06-27T12:02:42.065Z,124288.00
2023-06-27T12:03:42.070Z,119808.00
2023-06-27T12:04:42.012Z,110528.00
2023-06-27T12:05:42.080Z,110144.00
2023-06-27T12:06:42.058Z,104192.00
2023-06-27T12:07:41.978Z,108576.00
2023-06-27T12:08:42.168Z,109312.00
2023-06-27T12:09:41.961Z,110720.00